Time;durP1;ratioP1;P1;durP2;ratioP2;P2;SDS_P1;SDS_P2;PMS_P1;PMS_P2;Temp;Humidity;BMP_temperature;BMP_pressure;BME280_temperature;BME280_humidity;BME280_pressure;Samples;Min_cycle;Max_cycle;Signal;HPM_P1;HPM_P2
2023/12/25 00:01:15;;;;;;;1.38;1.00;;;14.40;88.20;;;;;;5046101;28;20029;-67
2023/12/25 00:03:41;;;;;;;1.60;0.60;;;14.40;88.30;;;;;;5044598;28;20550;-66
2023/12/25 00:06:07;;;;;;;2.20;0.82;;;14.40;88.20;;;;;;5042590;28;20071;-66
2023/12/25 00:08:32;;;;;;;4.43;1.10;;;14.50;88.20;;;;;;5043973;28;20039;-66
2023/12/25 00:10:58;;;;;;;1.90;0.88;;;14.40;88.10;;;;;;5044555;28;20402;-66
2023/12/25 00:13:24;;;;;;;2.53;1.05;;;14.40;88.00;;;;;;5048615;28;20107;-68
2023/12/25 00:15:50;;;;;;;1.80;0.70;;;14.40;88.10;;;;;;5040821;28;20121;-68
2023/12/25 00:18:16;;;;;;;1.25;0.75;;;14.50;88.10;;;;;;5043807;28;20694;-68
2023/12/25 00:20:42;;;;;;;1.50;0.93;;;14.50;88.30;;;;;;5043130;28;20021;-66
2023/12/25 00:23:08;;;;;;;3.83;0.90;;;14.50;89.00;;;;;;5041428;28;20067;-66
2023/12/25 00:25:34;;;;;;;0.93;0.85;;;14.50;88.50;;;;;;5050312;28;20444;-66
2023/12/25 00:27:59;;;;;;;3.13;1.17;;;14.40;88.70;;;;;;5050596;28;20107;-66
2023/12/25 00:30:25;;;;;;;1.00;0.90;;;14.40;88.90;;;;;;5050757;28;20442;-66
2023/12/25 00:32:51;;;;;;;6.13;0.82;;;14.30;89.10;;;;;;5051597;28;20036;-66
2023/12/25 00:35:17;;;;;;;4.70;1.17;;;14.30;89.20;;;;;;5046876;28;20503;-66
2023/12/25 00:37:42;;;;;;;4.57;0.80;;;14.30;89.20;;;;;;5049621;28;20056;-66
2023/12/25 00:40:08;;;;;;;2.08;0.73;;;14.30;89.20;;;;;;5052058;28;20064;-66
2023/12/25 00:42:34;;;;;;;7.43;0.88;;;14.30;89.00;;;;;;5049479;28;20083;-66
2023/12/25 00:45:00;;;;;;;1.10;0.77;;;14.20;89.10;;;;;;5047064;28;21922;-69
2023/12/25 00:47:25;;;;;;;2.60;1.17;;;14.30;89.10;;;;;;5051260;28;20025;-67
2023/12/25 00:49:51;;;;;;;3.05;1.08;;;14.30;89.20;;;;;;5050834;28;20025;-67
2023/12/25 00:52:17;;;;;;;1.90;1.00;;;14.20;89.40;;;;;;5060361;28;20123;-67
2023/12/25 00:54:46;;;;;;;2.15;1.08;;;14.20;89.60;;;;;;5055489;28;20112;-61
2023/12/25 00:57:12;;;;;;;2.72;0.77;;;14.20;90.00;;;;;;5055149;28;20036;-61
2023/12/25 00:59:37;;;;;;;5.10;1.60;;;14.20;90.10;;;;;;5050828;28;20044;-61
2023/12/25 01:02:03;;;;;;;4.97;1.20;;;14.10;90.20;;;;;;5053933;28;20480;-61
2023/12/25 01:04:29;;;;;;;1.38;0.98;;;14.00;90.40;;;;;;5048553;28;20086;-61
2023/12/25 01:06:55;;;;;;;2.83;0.98;;;13.90;90.40;;;;;;5056975;28;20037;-61
2023/12/25 01:09:21;;;;;;;0.63;0.30;;;13.80;90.30;;;;;;5054040;28;20064;-61
2023/12/25 01:11:46;;;;;;;0.30;0.20;;;13.70;90.10;;;;;;5046922;28;20040;-61
2023/12/25 01:14:12;;;;;;;0.40;0.30;;;13.70;90.20;;;;;;5054785;28;20021;-61
2023/12/25 01:16:38;;;;;;;1.58;0.57;;;13.60;90.20;;;;;;5047228;28;20033;-60
2023/12/25 01:19:04;;;;;;;0.75;0.45;;;13.60;90.20;;;;;;5055525;28;20054;-62
2023/12/25 01:21:32;;;;;;;0.52;0.52;;;13.50;90.20;;;;;;5050765;28;20544;-61
2023/12/25 01:23:58;;;;;;;0.90;0.90;;;13.50;90.50;;;;;;5056843;28;20403;-61
2023/12/25 01:26:24;;;;;;;1.55;0.68;;;13.60;90.50;;;;;;5041677;28;20026;-66
2023/12/25 01:28:49;;;;;;;0.65;0.65;;;13.60;90.50;;;;;;5050135;28;20036;-67
2023/12/25 01:31:15;;;;;;;4.38;0.82;;;13.70;90.50;;;;;;5053030;28;20395;-66
2023/12/25 01:33:41;;;;;;;3.92;1.15;;;13.70;90.50;;;;;;5051685;28;20440;-67
2023/12/25 01:36:06;;;;;;;1.77;0.77;;;13.70;90.20;;;;;;5042690;28;20029;-67
2023/12/25 01:38:32;;;;;;;0.90;0.70;;;13.80;90.20;;;;;;5049106;28;20130;-66
2023/12/25 01:40:58;;;;;;;3.70;1.20;;;13.70;90.00;;;;;;5050249;28;20047;-60
2023/12/25 01:43:23;;;;;;;4.03;1.17;;;13.70;90.10;;;;;;5047326;28;20025;-60
2023/12/25 01:45:49;;;;;;;2.90;0.95;;;13.70;90.10;;;;;;5043533;28;20033;-61
2023/12/25 01:48:15;;;;;;;1.48;1.00;;;13.70;90.10;;;;;;5048572;28;20333;-60
2023/12/25 01:50:41;;;;;;;3.65;1.52;;;13.80;90.20;;;;;;5055709;28;20491;-60
2023/12/25 01:53:06;;;;;;;1.80;1.17;;;13.80;90.10;;;;;;5058647;28;20044;-60
2023/12/25 01:55:32;;;;;;;2.80;1.63;;;13.80;90.10;;;;;;5055196;28;20433;-60
2023/12/25 01:57:58;;;;;;;5.35;1.48;;;13.80;90.10;;;;;;5044049;28;20029;-60
2023/12/25 02:00:24;;;;;;;5.47;1.30;;;13.80;90.10;;;;;;5045467;28;20496;-61
2023/12/25 02:02:50;;;;;;;3.85;0.70;;;13.80;90.00;;;;;;5048455;28;20064;-60
2023/12/25 02:05:17;;;;;;;3.80;1.38;;;13.80;90.00;;;;;;5054423;28;20132;-60
2023/12/25 02:07:44;;;;;;;1.10;0.73;;;13.80;89.70;;;;;;5047322;28;20039;-60
2023/12/25 02:10:10;;;;;;;1.50;0.65;;;13.70;88.70;;;;;;5055094;28;20495;-60
2023/12/25 02:12:36;;;;;;;1.40;0.73;;;13.70;88.80;;;;;;5043082;28;20108;-60
2023/12/25 02:15:06;;;;;;;2.42;0.43;;;13.60;88.70;;;;;;5049655;28;20041;-60
2023/12/25 02:17:33;;;;;;;0.50;0.40;;;13.50;87.90;;;;;;5053369;28;20033;-60
2023/12/25 02:19:59;;;;;;;0.75;0.45;;;13.30;87.20;;;;;;5053793;28;20128;-61
2023/12/25 02:22:25;;;;;;;0.50;0.30;;;13.20;87.90;;;;;;5049891;28;20108;-61
2023/12/25 02:25:02;;;;;;;0.70;0.35;;;13.10;88.30;;;;;;5052105;28;20029;-60
2023/12/25 02:27:29;;;;;;;0.10;0.10;;;13.00;88.30;;;;;;5053801;28;20025;-61
2023/12/25 02:29:55;;;;;;;0.75;0.52;;;12.90;88.30;;;;;;5045726;28;20048;-61
2023/12/25 02:32:21;;;;;;;0.47;0.40;;;12.80;88.20;;;;;;5049330;28;20132;-60
2023/12/25 02:34:47;;;;;;;0.93;0.63;;;12.70;88.30;;;;;;5043271;28;20033;-60
2023/12/25 02:37:14;;;;;;;0.50;0.40;;;12.70;88.70;;;;;;5053445;28;20024;-59
2023/12/25 02:39:39;;;;;;;0.20;0.20;;;12.80;88.90;;;;;;5054069;28;20033;-66
2023/12/25 02:42:05;;;;;;;1.40;0.43;;;12.80;88.90;;;;;;5056201;28;20559;-60
2023/12/25 02:44:31;;;;;;;0.35;0.32;;;12.80;89.00;;;;;;5047785;28;20036;-60
2023/12/25 02:46:57;;;;;;;2.58;0.63;;;12.80;89.30;;;;;;5054300;28;20078;-60
2023/12/25 02:49:22;;;;;;;1.02;0.55;;;12.80;89.50;;;;;;5046746;28;20032;-60
2023/12/25 02:51:48;;;;;;;2.05;0.75;;;12.90;89.70;;;;;;5044239;28;20503;-64
2023/12/25 02:54:14;;;;;;;1.17;0.65;;;13.00;90.00;;;;;;5049613;28;20052;-66
2023/12/25 02:56:40;;;;;;;2.47;0.85;;;13.10;90.20;;;;;;5056839;28;20124;-68
2023/12/25 02:59:06;;;;;;;4.43;1.05;;;13.10;90.20;;;;;;5055813;28;20483;-68
2023/12/25 03:01:32;;;;;;;3.80;1.45;;;13.10;90.30;;;;;;5054908;28;20021;-62
2023/12/25 03:03:57;;;;;;;3.78;0.82;;;13.20;90.40;;;;;;5056559;28;20111;-62
2023/12/25 03:06:23;;;;;;;4.60;1.50;;;13.30;90.40;;;;;;5055488;28;20365;-60
2023/12/25 03:08:49;;;;;;;2.85;1.30;;;13.30;90.60;;;;;;5051818;28;20028;-60
2023/12/25 03:11:14;;;;;;;1.13;0.93;;;13.40;90.70;;;;;;5047940;28;20025;-60
2023/12/25 03:13:40;;;;;;;2.65;1.70;;;13.40;90.80;;;;;;5049572;28;20109;-60
2023/12/25 03:16:06;;;;;;;1.70;1.00;;;13.50;90.80;;;;;;5041596;28;20037;-60
2023/12/25 03:18:32;;;;;;;5.13;1.10;;;13.50;90.80;;;;;;5032209;28;20044;-61
2023/12/25 03:20:58;;;;;;;6.60;1.23;;;13.50;90.80;;;;;;5039995;28;20135;-60
2023/12/25 03:23:24;;;;;;;5.35;1.08;;;13.50;90.80;;;;;;5033988;28;20453;-60
2023/12/25 03:25:49;;;;;;;4.80;1.40;;;13.60;90.80;;;;;;5048721;28;20025;-60
2023/12/25 03:28:15;;;;;;;2.17;1.30;;;13.60;90.80;;;;;;5041411;28;20681;-61
2023/12/25 03:30:41;;;;;;;2.67;1.02;;;13.60;90.80;;;;;;5040324;28;20033;-62
2023/12/25 03:33:09;;;;;;;0.93;0.80;;;13.60;90.80;;;;;;5043108;28;20025;-62
2023/12/25 03:35:35;;;;;;;2.15;0.90;;;13.60;90.70;;;;;;5035213;28;20053;-63
2023/12/25 03:38:01;;;;;;;3.47;1.55;;;13.60;90.70;;;;;;5037577;28;20065;-62
2023/12/25 03:40:27;;;;;;;1.92;0.95;;;13.70;90.60;;;;;;5043912;28;20119;-66
2023/12/25 03:42:55;;;;;;;2.13;0.75;;;13.70;90.60;;;;;;5044739;28;20024;-66
2023/12/25 03:45:21;;;;;;;3.85;1.30;;;13.70;90.50;;;;;;5039005;28;20131;-66
2023/12/25 03:47:47;;;;;;;7.25;1.33;;;13.70;90.40;;;;;;5043735;28;20065;-66
2023/12/25 03:50:13;;;;;;;1.25;0.77;;;13.70;90.40;;;;;;5037155;28;20064;-66
2023/12/25 03:52:39;;;;;;;2.85;1.25;;;13.70;90.30;;;;;;5048850;28;20056;-66
2023/12/25 03:55:05;;;;;;;1.98;1.00;;;13.70;90.30;;;;;;5038141;28;20029;-66
2023/12/25 03:57:30;;;;;;;4.28;1.08;;;13.70;90.20;;;;;;5044654;28;20043;-66
2023/12/25 03:59:56;;;;;;;7.43;1.45;;;13.70;90.20;;;;;;5047217;28;20036;-67
2023/12/25 04:02:22;;;;;;;4.00;1.10;;;13.80;90.20;;;;;;5051457;28;20029;-67
2023/12/25 04:04:47;;;;;;;6.32;1.85;;;13.80;90.20;;;;;;5053631;28;20349;-67
2023/12/25 04:07:14;;;;;;;1.45;0.60;;;13.80;90.00;;;;;;5058085;28;20035;-67
2023/12/25 04:09:41;;;;;;;5.55;1.23;;;13.80;90.00;;;;;;5044794;28;20039;-67
2023/12/25 04:12:07;;;;;;;6.20;1.30;;;13.80;90.00;;;;;;5048847;28;20040;-67
2023/12/25 04:14:37;;;;;;;8.82;1.65;;;13.80;90.00;;;;;;5049743;28;20381;-67
2023/12/25 04:17:02;;;;;;;5.35;1.95;;;13.80;89.90;;;;;;5052668;28;20484;-67
2023/12/25 04:19:28;;;;;;;7.10;1.27;;;13.80;89.80;;;;;;5054194;28;20029;-67
2023/12/25 04:21:54;;;;;;;2.45;1.20;;;13.80;89.90;;;;;;5048446;28;20488;-67
2023/12/25 04:24:20;;;;;;;7.63;1.73;;;13.80;90.10;;;;;;5046248;28;20056;-67
2023/12/25 04:26:45;;;;;;;4.93;0.90;;;13.80;89.70;;;;;;5050297;28;20037;-67
2023/12/25 04:29:11;;;;;;;3.65;1.15;;;13.90;89.60;;;;;;5059188;28;20464;-67
2023/12/25 04:31:37;;;;;;;8.57;1.08;;;13.80;89.50;;;;;;5052572;28;20210;-67
2023/12/25 04:34:03;;;;;;;7.15;0.77;;;13.80;89.50;;;;;;5054295;28;20557;-67
2023/12/25 04:36:29;;;;;;;2.80;0.95;;;13.80;89.50;;;;;;5049914;28;20407;-67
2023/12/25 04:38:54;;;;;;;3.85;1.52;;;13.80;89.40;;;;;;5050192;28;20112;-67
2023/12/25 04:41:23;;;;;;;3.47;0.90;;;13.80;89.40;;;;;;5043842;28;20098;-67
2023/12/25 04:43:50;;;;;;;0.90;0.60;;;13.90;89.50;;;;;;5045758;28;20051;-67
2023/12/25 04:46:17;;;;;;;4.18;1.10;;;13.90;89.40;;;;;;5050317;28;20102;-67
2023/12/25 04:48:43;;;;;;;5.65;1.48;;;13.90;89.20;;;;;;5055254;28;20595;-67
2023/12/25 04:51:08;;;;;;;1.73;0.75;;;13.90;89.10;;;;;;5056179;28;20034;-67
2023/12/25 04:53:36;;;;;;;4.75;1.58;;;13.90;89.20;;;;;;5052917;28;20032;-61
2023/12/25 04:56:04;;;;;;;2.88;1.60;;;13.90;89.20;;;;;;5053710;28;20029;-61
2023/12/25 04:58:30;;;;;;;3.90;0.95;;;13.90;89.20;;;;;;5046496;28;20025;-61
2023/12/25 05:00:56;;;;;;;2.80;0.90;;;13.90;89.30;;;;;;5057208;28;20031;-61
2023/12/25 05:03:22;;;;;;;2.95;1.27;;;13.90;89.20;;;;;;5055411;28;20029;-62
2023/12/25 05:05:48;;;;;;;8.20;1.55;;;13.90;89.10;;;;;;5056517;28;20029;-61
2023/12/25 05:08:14;;;;;;;3.53;1.58;;;13.90;89.10;;;;;;5056414;28;20018;-62
2023/12/25 05:10:40;;;;;;;2.35;1.15;;;13.90;89.10;;;;;;5051843;28;20055;-61
2023/12/25 05:13:06;;;;;;;1.75;1.05;;;13.90;89.20;;;;;;5054021;28;20029;-61
2023/12/25 05:15:31;;;;;;;3.65;1.67;;;14.00;89.10;;;;;;5048132;28;20091;-61
2023/12/25 05:17:57;;;;;;;1.65;0.75;;;13.90;89.00;;;;;;5053677;28;20025;-62
2023/12/25 05:20:23;;;;;;;4.63;1.25;;;14.00;89.10;;;;;;5050615;28;20065;-60
2023/12/25 05:22:48;;;;;;;4.55;1.10;;;14.00;88.90;;;;;;5045052;28;20037;-60
2023/12/25 05:25:14;;;;;;;2.03;0.60;;;14.00;89.00;;;;;;5054013;28;20136;-61
2023/12/25 05:27:40;;;;;;;1.05;0.70;;;14.00;89.10;;;;;;5051907;28;20044;-60
2023/12/25 05:30:06;;;;;;;4.07;1.02;;;14.00;89.00;;;;;;5047716;28;20107;-61
2023/12/25 05:32:32;;;;;;;4.28;0.55;;;13.90;89.10;;;;;;5041880;28;20036;-61
2023/12/25 05:34:57;;;;;;;6.60;1.52;;;13.90;89.30;;;;;;5053340;28;20605;-60
2023/12/25 05:37:23;;;;;;;1.80;0.68;;;13.80;89.20;;;;;;5053471;28;20033;-60
2023/12/25 05:39:49;;;;;;;2.10;0.50;;;13.80;89.20;;;;;;5032062;28;20075;-60
2023/12/25 05:42:14;;;;;;;1.55;0.60;;;13.70;89.20;;;;;;5058194;28;20029;-60
2023/12/25 05:44:40;;;;;;;3.08;0.57;;;13.70;89.30;;;;;;5052356;28;20506;-60
2023/12/25 05:47:06;;;;;;;5.07;1.10;;;13.70;89.20;;;;;;5051704;28;20438;-61
2023/12/25 05:49:32;;;;;;;1.27;0.90;;;13.70;89.10;;;;;;5044076;28;20033;-68
2023/12/25 05:51:57;;;;;;;3.85;1.00;;;13.70;89.20;;;;;;5047354;28;20103;-61
2023/12/25 05:54:23;;;;;;;4.05;0.93;;;13.70;89.10;;;;;;5048730;28;20458;-60
2023/12/25 05:56:49;;;;;;;2.67;1.13;;;13.70;89.00;;;;;;5057762;28;20043;-60
2023/12/25 05:59:15;;;;;;;2.08;0.80;;;13.60;89.00;;;;;;5047364;28;20031;-60
2023/12/25 06:01:41;;;;;;;1.20;0.55;;;13.60;89.10;;;;;;5048905;28;20154;-60
2023/12/25 06:04:06;;;;;;;1.67;0.50;;;13.60;89.20;;;;;;5051265;28;20063;-67
2023/12/25 06:06:32;;;;;;;0.90;0.60;;;13.70;89.30;;;;;;5050432;28;20057;-67
2023/12/25 06:08:57;;;;;;;2.75;1.05;;;13.60;89.40;;;;;;5055148;28;20027;-60
2023/12/25 06:11:23;;;;;;;0.75;0.60;;;13.70;89.60;;;;;;5047506;28;20025;-60
2023/12/25 06:13:49;;;;;;;1.23;0.70;;;13.70;89.90;;;;;;5055386;28;20029;-60
2023/12/25 06:16:15;;;;;;;0.70;0.65;;;13.70;90.00;;;;;;5055798;28;20492;-67
2023/12/25 06:18:41;;;;;;;4.03;1.05;;;13.60;90.10;;;;;;5033721;28;20112;-67
2023/12/25 06:21:06;;;;;;;2.05;1.00;;;13.70;90.10;;;;;;5047089;28;20515;-66
2023/12/25 06:23:32;;;;;;;2.78;1.42;;;13.70;90.20;;;;;;5049853;28;20056;-67
2023/12/25 06:25:59;;;;;;;8.13;0.90;;;13.70;90.30;;;;;;5050855;28;20074;-67
2023/12/25 06:28:25;;;;;;;4.28;1.02;;;13.70;90.60;;;;;;5043246;28;20123;-66
2023/12/25 06:30:51;;;;;;;2.00;1.45;;;13.70;90.30;;;;;;5055286;28;20104;-67
2023/12/25 06:33:18;;;;;;;1.92;0.93;;;13.70;90.40;;;;;;5056451;28;20364;-67
2023/12/25 06:35:43;;;;;;;1.10;0.70;;;13.70;90.40;;;;;;5047042;28;20033;-67
2023/12/25 06:38:11;;;;;;;2.00;0.70;;;13.70;90.50;;;;;;5058895;28;20111;-67
2023/12/25 06:40:37;;;;;;;1.42;0.80;;;13.70;90.40;;;;;;5052629;28;20263;-66
2023/12/25 06:43:03;;;;;;;0.50;0.50;;;13.70;90.40;;;;;;5044400;28;20033;-66
2023/12/25 06:45:28;;;;;;;2.05;0.85;;;13.70;90.40;;;;;;5054958;28;20605;-60
2023/12/25 06:47:54;;;;;;;3.13;1.02;;;13.70;90.40;;;;;;5051144;28;20028;-60
2023/12/25 06:50:20;;;;;;;2.97;1.10;;;13.70;90.30;;;;;;5053032;28;20040;-60
2023/12/25 06:52:46;;;;;;;3.28;1.13;;;13.70;90.30;;;;;;5048681;28;20037;-61
2023/12/25 06:55:12;;;;;;;1.20;0.80;;;13.60;90.40;;;;;;5049427;28;20410;-67
2023/12/25 06:57:37;;;;;;;2.42;1.08;;;13.60;90.40;;;;;;5055813;28;20446;-67
2023/12/25 07:00:04;;;;;;;2.67;0.65;;;13.60;90.40;;;;;;5049843;28;20036;-67
2023/12/25 07:02:30;;;;;;;3.30;0.55;;;13.60;90.40;;;;;;5053949;28;20391;-67
2023/12/25 07:04:56;;;;;;;1.38;0.70;;;13.60;90.30;;;;;;5040736;28;20020;-67
2023/12/25 07:07:21;;;;;;;1.35;0.70;;;13.60;90.30;;;;;;5047935;28;20056;-67
2023/12/25 07:09:47;;;;;;;3.63;1.10;;;13.60;90.30;;;;;;5042511;28;20387;-67
2023/12/25 07:12:13;;;;;;;1.02;0.93;;;13.50;90.20;;;;;;5035263;28;20868;-67
2023/12/25 07:14:39;;;;;;;1.30;0.57;;;13.50;90.20;;;;;;5044586;28;20178;-67
2023/12/25 07:17:07;;;;;;;0.75;0.32;;;13.50;90.20;;;;;;5045987;28;20090;-67
2023/12/25 07:19:33;;;;;;;1.40;0.47;;;13.50;90.20;;;;;;5035976;28;20040;-67
2023/12/25 07:22:01;;;;;;;0.28;0.28;;;13.50;90.00;;;;;;5051008;28;20028;-67
2023/12/25 07:24:27;;;;;;;0.43;0.38;;;13.40;90.00;;;;;;5045972;28;20446;-61
2023/12/25 07:26:52;;;;;;;0.30;0.20;;;13.40;90.00;;;;;;5044299;28;20112;-61
2023/12/25 07:29:18;;;;;;;0.50;0.30;;;13.40;90.00;;;;;;5051888;28;20025;-61
2023/12/25 07:31:44;;;;;;;1.17;0.40;;;13.40;89.90;;;;;;5038489;28;20033;-61
2023/12/25 07:34:10;;;;;;;0.40;0.40;;;13.40;89.80;;;;;;5050921;28;20033;-61
2023/12/25 07:36:36;;;;;;;4.38;0.50;;;13.40;89.80;;;;;;5042021;28;20511;-60
2023/12/25 07:39:01;;;;;;;1.40;0.65;;;13.30;89.70;;;;;;5051913;28;20094;-61
2023/12/25 07:41:27;;;;;;;0.85;0.60;;;13.30;89.50;;;;;;5049558;28;20040;-61
2023/12/25 07:43:58;;;;;;;0.30;0.30;;;13.30;89.30;;;;;;5045243;28;20037;-61
2023/12/25 07:46:23;;;;;;;3.60;0.55;;;13.30;89.40;;;;;;5056870;28;20036;-64
2023/12/25 07:48:50;;;;;;;1.27;0.73;;;13.30;89.30;;;;;;5051321;28;20037;-64
2023/12/25 07:51:15;;;;;;;0.47;0.28;;;13.30;89.20;;;;;;5049449;28;20443;-65
2023/12/25 07:53:41;;;;;;;2.85;0.93;;;13.30;89.20;;;;;;5054559;28;20034;-64
2023/12/25 07:56:07;;;;;;;0.30;0.30;;;13.20;89.00;;;;;;5053462;28;20041;-66
2023/12/25 07:58:32;;;;;;;1.20;0.52;;;13.30;89.10;;;;;;5050050;28;20041;-65
2023/12/25 08:00:58;;;;;;;1.27;0.30;;;13.30;89.00;;;;;;5052001;28;20048;-64
2023/12/25 08:03:24;;;;;;;2.33;0.50;;;13.20;88.70;;;;;;5056894;28;20057;-64
2023/12/25 08:05:49;;;;;;;1.02;0.55;;;13.20;88.70;;;;;;5056535;28;20032;-65
2023/12/25 08:08:15;;;;;;;0.30;0.25;;;13.20;88.60;;;;;;5044258;28;20100;-65
2023/12/25 08:10:41;;;;;;;0.73;0.20;;;13.10;88.60;;;;;;5054954;28;20032;-65
2023/12/25 08:13:07;;;;;;;0.85;0.50;;;13.20;88.80;;;;;;5027757;28;20444;-65
2023/12/25 08:15:32;;;;;;;1.48;0.40;;;13.20;89.20;;;;;;5049205;28;20057;-64
2023/12/25 08:17:59;;;;;;;0.50;0.40;;;13.20;88.60;;;;;;5052650;28;20448;-65
2023/12/25 08:20:24;;;;;;;0.75;0.38;;;13.20;88.40;;;;;;5051875;28;20083;-64
2023/12/25 08:22:50;;;;;;;0.52;0.30;;;13.20;88.30;;;;;;5052288;28;20056;-65
2023/12/25 08:25:16;;;;;;;0.40;0.40;;;13.30;88.50;;;;;;5060531;28;20041;-65
2023/12/25 08:27:42;;;;;;;0.63;0.32;;;13.20;88.20;;;;;;5049156;28;20037;-64
2023/12/25 08:30:08;;;;;;;0.45;0.43;;;13.20;88.10;;;;;;5055912;28;20060;-62
2023/12/25 08:32:34;;;;;;;1.70;0.98;;;13.20;88.00;;;;;;5048958;28;20418;-63
2023/12/25 08:34:59;;;;;;;0.45;0.45;;;13.30;87.90;;;;;;5060322;28;20039;-69
2023/12/25 08:37:25;;;;;;;0.30;0.30;;;13.20;87.80;;;;;;5050638;28;20033;-64
2023/12/25 08:39:52;;;;;;;0.20;0.20;;;13.20;87.90;;;;;;5047406;28;20438;-64
2023/12/25 08:42:18;;;;;;;0.80;0.50;;;13.30;88.00;;;;;;5048053;28;20024;-64
2023/12/25 08:44:43;;;;;;;1.67;0.70;;;13.30;87.90;;;;;;5051103;28;20523;-63
2023/12/25 08:47:09;;;;;;;3.03;0.70;;;13.30;87.80;;;;;;5050396;28;20025;-63
2023/12/25 08:49:36;;;;;;;0.85;0.47;;;13.30;87.80;;;;;;5048660;28;20106;-64
2023/12/25 08:52:03;;;;;;;0.70;0.28;;;13.40;87.80;;;;;;5051408;28;20060;-63
2023/12/25 08:54:29;;;;;;;1.05;0.50;;;13.30;87.50;;;;;;5050178;28;20028;-64
2023/12/25 08:56:55;;;;;;;0.55;0.43;;;13.30;87.70;;;;;;5044562;28;20055;-64
2023/12/25 08:59:20;;;;;;;0.50;0.25;;;13.30;87.80;;;;;;5054922;28;20391;-63
2023/12/25 09:01:46;;;;;;;1.15;0.75;;;13.30;87.80;;;;;;5046259;28;20558;-63
2023/12/25 09:04:12;;;;;;;1.10;0.57;;;13.30;87.90;;;;;;5026887;28;20029;-64
2023/12/25 09:06:38;;;;;;;3.10;0.20;;;13.30;88.00;;;;;;5044345;28;20024;-64
2023/12/25 09:09:04;;;;;;;1.63;0.60;;;13.20;88.50;;;;;;5051031;28;20361;-64
2023/12/25 09:11:33;;;;;;;1.77;0.88;;;13.20;88.00;;;;;;5051858;28;20029;-64
2023/12/25 09:13:58;;;;;;;0.60;0.40;;;13.20;88.10;;;;;;5048371;28;20543;-63
2023/12/25 09:16:24;;;;;;;0.52;0.43;;;13.30;88.20;;;;;;5053691;28;20132;-64
2023/12/25 09:18:50;;;;;;;1.08;0.65;;;13.30;88.10;;;;;;5050490;28;20119;-64
2023/12/25 09:21:17;;;;;;;0.40;0.30;;;13.30;88.10;;;;;;5053733;28;20041;-64
2023/12/25 09:23:45;;;;;;;0.47;0.30;;;13.30;88.10;;;;;;5034824;28;20584;-64
2023/12/25 09:26:18;;;;;;;0.73;0.28;;;13.40;88.10;;;;;;5034768;28;20504;-63
2023/12/25 09:28:43;;;;;;;;;;;13.40;88.10;;;;;;5041116;28;20116;-64
2023/12/25 09:31:10;;;;;;;2.70;0.50;;;13.40;88.10;;;;;;5027668;28;20043;-65
2023/12/25 09:33:36;;;;;;;0.43;0.43;;;13.30;88.20;;;;;;5043767;28;20500;-64
2023/12/25 09:36:02;;;;;;;0.65;0.50;;;13.40;88.20;;;;;;5047859;28;20063;-64
2023/12/25 09:38:27;;;;;;;1.10;0.60;;;13.40;88.20;;;;;;5045874;28;20096;-66
2023/12/25 09:40:57;;;;;;;0.63;0.43;;;13.40;88.20;;;;;;5046555;28;20037;-63
2023/12/25 09:43:23;;;;;;;0.90;0.20;;;13.40;88.30;;;;;;5030503;28;20377;-64
2023/12/25 09:45:50;;;;;;;1.00;0.47;;;13.30;88.40;;;;;;5042693;28;20366;-64
2023/12/25 09:48:17;;;;;;;0.73;0.50;;;13.40;88.40;;;;;;5049409;28;20060;-64
2023/12/25 09:50:44;;;;;;;1.83;0.57;;;13.40;88.30;;;;;;5045557;28;20025;-64
2023/12/25 09:53:10;;;;;;;0.35;0.30;;;13.40;88.30;;;;;;5045613;28;20029;-65
2023/12/25 09:55:36;;;;;;;1.95;0.75;;;13.40;88.30;;;;;;5036818;28;20033;-65
2023/12/25 09:58:07;;;;;;;1.15;0.77;;;13.40;88.40;;;;;;5034272;28;20037;-65
2023/12/25 10:00:33;;;;;;;5.77;1.00;;;13.30;88.50;;;;;;5047323;28;20037;-65
2023/12/25 10:03:02;;;;;;;0.68;0.50;;;13.30;88.50;;;;;;5045365;28;20627;-65
2023/12/25 10:05:28;;;;;;;0.38;0.35;;;13.30;88.50;;;;;;5044509;28;20076;-65
2023/12/25 10:07:54;;;;;;;3.22;0.73;;;13.30;88.50;;;;;;5040896;28;20037;-64
2023/12/25 10:10:27;;;;;;;0.50;0.47;;;13.30;88.50;;;;;;5045917;28;20124;-65
2023/12/25 10:12:53;;;;;;;0.82;0.65;;;13.40;88.50;;;;;;5044063;28;20059;-65
2023/12/25 10:15:18;;;;;;;1.05;0.80;;;13.40;88.60;;;;;;5048079;28;20029;-65
2023/12/25 10:17:44;;;;;;;0.77;0.65;;;13.40;88.50;;;;;;5052410;28;20094;-64
2023/12/25 10:20:17;;;;;;;1.08;0.88;;;13.40;88.30;;;;;;5035911;28;20052;-63
2023/12/25 10:22:43;;;;;;;1.10;0.70;;;13.40;88.40;;;;;;5067453;28;20496;-63
2023/12/25 10:25:10;;;;;;;0.52;0.52;;;13.40;88.40;;;;;;5058232;28;20024;-64
2023/12/25 10:27:42;;;;;;;0.32;0.30;;;13.50;88.40;;;;;;5041834;28;20033;-65
2023/12/25 10:30:18;;;;;;;1.60;0.70;;;13.50;88.40;;;;;;5050245;28;20032;-65
2023/12/25 10:32:44;;;;;;;3.22;0.80;;;13.50;88.20;;;;;;5044350;28;20476;-64
2023/12/25 10:35:11;;;;;;;0.77;0.55;;;13.40;87.90;;;;;;5040658;28;20033;-66
2023/12/25 10:37:38;;;;;;;0.30;0.30;;;13.40;88.20;;;;;;5051061;28;20028;-65
2023/12/25 10:40:22;;;;;;;0.40;0.40;;;13.30;88.10;;;;;;5031367;28;20131;-65
2023/12/25 10:42:49;;;;;;;2.03;0.98;;;13.30;88.30;;;;;;5045831;28;20391;-65
2023/12/25 10:45:22;;;;;;;0.75;0.63;;;13.30;88.40;;;;;;5042067;28;20446;-65
2023/12/25 10:47:53;;;;;;;0.40;0.40;;;13.30;88.30;;;;;;5041859;28;20365;-65
2023/12/25 10:50:20;;;;;;;2.40;0.52;;;13.30;88.30;;;;;;5046684;28;20368;-65
2023/12/25 10:52:49;;;;;;;2.75;0.77;;;13.30;88.30;;;;;;5047796;28;20084;-66
2023/12/25 10:55:19;;;;;;;0.57;0.57;;;13.30;88.20;;;;;;5039558;28;20034;-65
2023/12/25 10:57:45;;;;;;;0.68;0.50;;;13.30;88.30;;;;;;5043618;28;20116;-64
2023/12/25 11:00:12;;;;;;;0.35;0.30;;;13.30;88.20;;;;;;5046443;28;20119;-64
2023/12/25 11:02:39;;;;;;;2.17;0.57;;;13.40;88.10;;;;;;5046258;28;20029;-64
2023/12/25 11:05:06;;;;;;;2.00;0.32;;;13.40;87.90;;;;;;5051996;28;20025;-65
2023/12/25 11:07:32;;;;;;;3.70;0.63;;;13.40;88.00;;;;;;5043815;28;20025;-65
2023/12/25 11:10:00;;;;;;;0.30;0.30;;;13.40;87.90;;;;;;5058715;28;20047;-72
2023/12/25 11:12:27;;;;;;;0.15;0.15;;;13.40;87.90;;;;;;5045247;28;20132;-72
2023/12/25 11:14:53;;;;;;;0.50;0.30;;;13.40;87.90;;;;;;5050178;28;20033;-65
2023/12/25 11:17:19;;;;;;;0.77;0.40;;;13.50;87.90;;;;;;5049941;28;20408;-65
2023/12/25 11:19:46;;;;;;;0.25;0.25;;;13.50;87.80;;;;;;5049051;28;20032;-64
2023/12/25 11:22:41;;;;;;;0.40;0.40;;;13.50;87.50;;;;;;5037663;28;20377;-64
2023/12/25 11:25:18;;;;;;;1.00;0.40;;;13.60;87.00;;;;;;5044273;28;20411;-64
2023/12/25 11:27:51;;;;;;;1.92;0.32;;;13.60;86.90;;;;;;5039704;28;20030;-66
2023/12/25 11:30:18;;;;;;;0.82;0.38;;;13.70;86.60;;;;;;5040807;28;20043;-63
2023/12/25 11:32:48;;;;;;;1.15;0.40;;;13.70;86.20;;;;;;5039648;28;20034;-64
2023/12/25 11:35:14;;;;;;;0.45;0.40;;;13.70;85.90;;;;;;5041236;28;20031;-65
2023/12/25 11:37:40;;;;;;;0.60;0.60;;;13.70;85.90;;;;;;5043741;28;20072;-65
2023/12/25 11:40:07;;;;;;;0.98;0.65;;;13.70;85.60;;;;;;5038981;28;20087;-65
2023/12/25 11:42:35;;;;;;;0.52;0.52;;;13.70;85.20;;;;;;5038991;28;20071;-65
2023/12/25 11:45:11;;;;;;;2.38;0.40;;;13.60;84.80;;;;;;5046404;28;20025;-65
2023/12/25 11:47:40;;;;;;;0.93;0.50;;;13.60;84.90;;;;;;5044610;28;20116;-65
2023/12/25 11:50:07;;;;;;;3.90;0.47;;;13.60;84.50;;;;;;5046203;28;20381;-65
2023/12/25 11:52:55;;;;;;;3.10;0.73;;;13.60;84.30;;;;;;5045953;28;20431;-65
2023/12/25 11:55:25;;;;;;;1.10;0.47;;;13.60;84.20;;;;;;5049138;28;20041;-65
2023/12/25 11:57:51;;;;;;;0.22;0.22;;;13.60;84.10;;;;;;5046048;28;20460;-65
2023/12/25 12:00:18;;;;;;;1.25;0.77;;;13.60;83.90;;;;;;5047198;28;20138;-65
2023/12/25 12:02:44;;;;;;;1.15;0.57;;;13.60;83.90;;;;;;5052131;28;20369;-65
2023/12/25 12:05:11;;;;;;;0.40;0.30;;;13.70;83.90;;;;;;5048434;28;20112;-65
2023/12/25 12:07:37;;;;;;;0.40;0.40;;;13.70;83.80;;;;;;5050226;28;20044;-64
2023/12/25 12:10:03;;;;;;;3.00;0.68;;;13.80;83.50;;;;;;5050655;28;20033;-64
2023/12/25 12:12:28;;;;;;;0.57;0.40;;;13.80;83.30;;;;;;5048249;28;20132;-64
2023/12/25 12:14:54;;;;;;;0.30;0.30;;;13.80;83.20;;;;;;5043295;28;20056;-64
2023/12/25 12:17:20;;;;;;;0.60;0.40;;;13.90;83.60;;;;;;5049966;28;20029;-64
2023/12/25 12:19:46;;;;;;;1.38;0.63;;;14.90;84.00;;;;;;5043840;28;20036;-62
2023/12/25 12:22:12;;;;;;;0.38;0.38;;;16.80;79.10;;;;;;5043403;28;20032;-62
2023/12/25 12:24:38;;;;;;;0.20;0.20;;;18.50;74.30;;;;;;5055899;28;20416;-63
2023/12/25 12:27:08;;;;;;;2.08;0.70;;;19.70;70.90;;;;;;5053571;28;20034;-64
2023/12/25 12:29:33;;;;;;;2.65;0.52;;;20.10;66.60;;;;;;5053333;28;20060;-65
2023/12/25 12:32:00;;;;;;;4.50;0.55;;;19.20;67.30;;;;;;5042417;28;20045;-64
2023/12/25 12:34:26;;;;;;;0.90;0.52;;;18.10;69.20;;;;;;5041243;28;20060;-64
2023/12/25 12:37:05;;;;;;;1.38;0.40;;;17.10;71.70;;;;;;5043723;28;20089;-63
2023/12/25 12:39:31;;;;;;;0.20;0.20;;;16.30;73.30;;;;;;5055854;28;20033;-63
2023/12/25 12:41:58;;;;;;;0.52;0.30;;;15.60;75.60;;;;;;5055938;28;20033;-66
2023/12/25 12:44:25;;;;;;;0.95;0.60;;;15.30;77.00;;;;;;5046628;28;20112;-63